Terminal Aerodrome Forecast
Issued by NWS Bismarck, ND

Home | Current Version | Previous Version | Text Only | Print | Product List | Glossary On
Versions: 1 2 3 4 5 6 7 8 9 10 11 12 13 14 15 16 17 18 19 20 21 22 23
000
FTUS43 KBIS 280500
TAFBIS
TAF
KBIS 280527Z 2806/2906 15004KT P6SM OVC025
     FM281200 10004KT 6SM BR BKN007 OVC015
     FM281600 20006KT P6SM SCT025 BKN050
     FM282300 18005KT P6SM SCT050
     FM290300 15004KT P6SM SKC=

USA.gov is the U.S. government's official web portal to all federal, state and local government web resources and services.